createdAt,value
2023-04-13T00:00:49.555Z,6.15
2023-04-13T00:03:20.693Z,6.07
2023-04-13T00:05:52.112Z,6.00
2023-04-13T00:08:23.049Z,5.95
2023-04-13T00:10:51.593Z,5.92
2023-04-13T00:13:24.664Z,5.91
2023-04-13T00:15:53.629Z,5.93
2023-04-13T00:18:21.338Z,5.95
2023-04-13T00:20:49.783Z,5.99
2023-04-13T00:23:17.978Z,6.05
2023-04-13T00:25:45.769Z,6.06
2023-04-13T00:28:13.392Z,6.07
2023-04-13T00:30:41.524Z,6.08
2023-04-13T00:33:09.382Z,6.10
2023-04-13T00:35:37.161Z,6.15
2023-04-13T00:38:04.950Z,6.18
2023-04-13T00:40:33.262Z,6.19
2023-04-13T00:43:02.045Z,6.20
2023-04-13T00:45:30.108Z,6.25
2023-04-13T00:47:58.370Z,6.31
2023-04-13T00:50:26.245Z,6.34
2023-04-13T00:52:54.330Z,6.37
2023-04-13T00:55:22.297Z,6.42
2023-04-13T00:57:52.294Z,6.46
2023-04-13T01:00:20.751Z,6.48
2023-04-13T01:02:50.608Z,6.51
2023-04-13T01:05:19.121Z,6.50
2023-04-13T01:08:04.103Z,6.49
2023-04-13T01:10:38.173Z,6.50
2023-04-13T01:13:22.211Z,6.51
2023-04-13T01:15:56.470Z,6.54
2023-04-13T01:18:25.342Z,6.56
2023-04-13T01:20:55.014Z,6.57
2023-04-13T01:23:27.432Z,6.50
2023-04-13T01:25:57.739Z,6.45
2023-04-13T01:28:27.997Z,6.40
2023-04-13T01:30:57.633Z,6.36
2023-04-13T01:33:25.457Z,6.33
2023-04-13T01:35:54.224Z,6.30
2023-04-13T01:38:24.518Z,6.26
2023-04-13T01:40:54.320Z,6.22
2023-04-13T01:43:22.291Z,6.17
2023-04-13T01:46:04.715Z,6.14
2023-04-13T01:48:47.157Z,6.14
2023-04-13T01:51:42.671Z,6.16
2023-04-13T01:54:13.869Z,6.16
2023-04-13T01:56:45.365Z,6.17
2023-04-13T01:59:13.651Z,6.17
2023-04-13T02:01:43.575Z,6.19
2023-04-13T02:04:11.799Z,6.23
2023-04-13T02:06:42.278Z,6.24
2023-04-13T02:09:10.959Z,6.26
2023-04-13T02:11:38.691Z,6.27
2023-04-13T02:14:09.451Z,6.30
2023-04-13T02:16:37.250Z,6.35
2023-04-13T02:19:05.174Z,6.41
2023-04-13T02:21:34.731Z,6.47
2023-04-13T02:24:02.557Z,6.52
2023-04-13T02:26:30.265Z,6.57
2023-04-13T02:28:58.393Z,6.60
2023-04-13T02:31:26.226Z,6.63
2023-04-13T02:33:54.079Z,6.65
2023-04-13T02:36:22.410Z,6.68
2023-04-13T02:38:56.622Z,6.72
2023-04-13T02:41:34.763Z,6.75
2023-04-13T02:44:03.130Z,6.78
2023-04-13T02:46:36.958Z,6.82
2023-04-13T02:49:09.180Z,6.83
2023-04-13T02:51:42.523Z,6.84
2023-04-13T02:54:11.602Z,6.90
2023-04-13T02:56:41.754Z,6.94
2023-04-13T02:59:09.888Z,6.96
2023-04-13T03:01:37.802Z,6.94
2023-04-13T03:04:07.077Z,6.88
2023-04-13T03:06:35.081Z,6.81
2023-04-13T03:09:03.834Z,6.75
2023-04-13T03:11:42.237Z,6.73
2023-04-13T03:14:21.938Z,6.73
2023-04-13T03:16:54.778Z,6.70
2023-04-13T03:19:25.890Z,6.66
2023-04-13T03:21:53.971Z,6.61
2023-04-13T03:24:27.188Z,6.56
2023-04-13T03:26:58.012Z,6.53
2023-04-13T03:29:32.413Z,6.53
2023-04-13T03:32:00.398Z,6.51
2023-04-13T03:34:29.046Z,6.50
2023-04-13T03:36:57.034Z,6.49
2023-04-13T03:39:26.269Z,6.46
2023-04-13T03:41:54.039Z,6.42
2023-04-13T03:44:22.066Z,6.36
2023-04-13T03:46:50.685Z,6.30
2023-04-13T03:49:25.721Z,6.25
2023-04-13T03:51:53.469Z,6.21
2023-04-13T03:54:21.285Z,6.17
2023-04-13T03:56:50.341Z,6.17
2023-04-13T03:59:18.011Z,6.17
2023-04-13T04:01:46.091Z,6.18
2023-04-13T04:04:14.656Z,6.23
2023-04-13T04:06:42.870Z,6.24
2023-04-13T04:09:15.624Z,6.29
2023-04-13T04:11:47.540Z,6.34
2023-04-13T04:14:20.396Z,6.34
2023-04-13T04:16:53.291Z,6.38
2023-04-13T04:19:21.348Z,6.40
2023-04-13T04:21:49.855Z,6.43
2023-04-13T04:24:27.480Z,6.41
2023-04-13T04:26:57.851Z,6.44
2023-04-13T04:29:41.733Z,6.42
2023-04-13T04:32:23.950Z,6.39
2023-04-13T04:34:53.007Z,6.38
2023-04-13T04:37:25.930Z,6.37
2023-04-13T04:40:11.082Z,6.37
2023-04-13T04:42:39.702Z,6.35
2023-04-13T04:45:14.072Z,6.32
2023-04-13T04:47:44.575Z,6.30
2023-04-13T04:50:18.036Z,6.33
2023-04-13T04:52:47.435Z,6.32
2023-04-13T04:55:18.929Z,6.35
2023-04-13T04:57:46.762Z,6.36
2023-04-13T05:00:15.824Z,6.40
2023-04-13T05:02:50.724Z,6.46
2023-04-13T05:05:18.888Z,6.51
2023-04-13T05:07:49.942Z,6.56
2023-04-13T05:10:17.680Z,6.60
2023-04-13T05:12:51.185Z,6.65
2023-04-13T05:15:19.005Z,6.71
2023-04-13T05:17:47.427Z,6.75
2023-04-13T05:20:15.685Z,6.81
2023-04-13T05:22:49.542Z,6.86
2023-04-13T05:25:17.829Z,6.89
2023-04-13T05:27:46.227Z,6.91
2023-04-13T05:30:14.997Z,6.97
2023-04-13T05:32:44.732Z,7.01
2023-04-13T05:35:14.253Z,7.06
2023-04-13T05:37:45.557Z,7.13
2023-04-13T05:40:18.489Z,7.19
2023-04-13T05:42:46.658Z,7.25
2023-04-13T05:45:16.775Z,7.32
2023-04-13T05:47:57.173Z,7.41
2023-04-13T05:50:24.990Z,7.48
2023-04-13T05:52:52.723Z,7.54
2023-04-13T05:55:23.572Z,7.58
2023-04-13T05:57:57.208Z,7.63
2023-04-13T06:00:25.988Z,7.70
2023-04-13T06:03:01.309Z,7.76
2023-04-13T06:05:31.822Z,7.79
2023-04-13T06:07:59.748Z,7.84
2023-04-13T06:10:27.876Z,7.86
2023-04-13T06:12:56.164Z,7.89
2023-04-13T06:15:24.120Z,7.93
2023-04-13T06:17:55.963Z,8.01
2023-04-13T06:20:24.358Z,8.07
2023-04-13T06:22:52.951Z,8.14
2023-04-13T06:25:22.476Z,8.18
2023-04-13T06:27:50.640Z,8.21
2023-04-13T06:30:19.612Z,8.25
2023-04-13T06:32:48.279Z,8.31
2023-04-13T06:35:25.621Z,8.39
2023-04-13T06:37:53.773Z,8.45
2023-04-13T06:40:25.829Z,8.54
2023-04-13T06:42:59.742Z,8.60
2023-04-13T06:45:39.741Z,8.70
2023-04-13T06:48:14.552Z,8.78
2023-04-13T06:50:44.696Z,8.86
2023-04-13T06:53:13.159Z,8.94
2023-04-13T06:55:42.064Z,9.02
2023-04-13T06:58:11.348Z,9.09
2023-04-13T07:00:39.129Z,9.17
2023-04-13T07:03:06.908Z,9.25
2023-04-13T07:05:38.884Z,9.35
2023-04-13T07:08:11.574Z,9.46
2023-04-13T07:10:40.968Z,9.54
2023-04-13T07:13:17.377Z,9.66
2023-04-13T07:15:45.117Z,9.76
2023-04-13T07:18:12.937Z,9.88
2023-04-13T07:20:40.831Z,10.00
2023-04-13T07:23:09.152Z,10.13
2023-04-13T07:25:37.954Z,10.26
2023-04-13T07:28:07.323Z,10.40
2023-04-13T07:30:34.998Z,10.55
2023-04-13T07:33:02.727Z,10.69
2023-04-13T07:35:33.294Z,10.81
2023-04-13T07:38:01.289Z,10.92
2023-04-13T07:40:29.155Z,10.99
2023-04-13T07:42:57.918Z,11.08
2023-04-13T07:45:28.916Z,11.19
2023-04-13T07:47:57.052Z,11.30
2023-04-13T07:50:35.128Z,11.42
2023-04-13T07:53:03.164Z,11.54
2023-04-13T07:55:30.797Z,11.64
2023-04-13T07:57:59.695Z,11.74
2023-04-13T08:00:28.253Z,11.80
2023-04-13T08:02:57.506Z,11.83
2023-04-13T08:05:25.858Z,11.89
2023-04-13T08:07:54.013Z,11.99
2023-04-13T08:10:22.483Z,12.10
2023-04-13T08:12:50.362Z,12.22
2023-04-13T08:15:19.222Z,12.35
2023-04-13T08:17:47.572Z,12.49
2023-04-13T08:20:16.001Z,12.62
2023-04-13T08:22:45.845Z,12.77
2023-04-13T08:25:16.402Z,12.92
2023-04-13T08:27:46.265Z,13.06
2023-04-13T08:30:14.733Z,13.19
2023-04-13T08:32:56.095Z,13.37
2023-04-13T08:35:24.013Z,13.54
2023-04-13T08:37:53.874Z,13.67
2023-04-13T08:40:22.976Z,13.79
2023-04-13T08:42:56.801Z,13.88
2023-04-13T08:45:25.140Z,13.99
2023-04-13T08:47:52.883Z,14.06
2023-04-13T08:50:22.383Z,14.13
2023-04-13T08:52:54.880Z,14.25
2023-04-13T08:55:23.336Z,14.36
2023-04-13T08:57:53.087Z,14.39
2023-04-13T09:00:22.939Z,14.43
2023-04-13T09:03:04.565Z,14.51
2023-04-13T09:05:37.539Z,14.60
2023-04-13T09:08:07.771Z,14.66
2023-04-13T09:10:36.866Z,14.66
2023-04-13T09:13:05.762Z,14.63
2023-04-13T09:15:34.663Z,14.63
2023-04-13T09:18:22.720Z,14.72
2023-04-13T09:20:59.842Z,14.77
2023-04-13T09:23:27.775Z,14.73
2023-04-13T09:26:13.969Z,14.68
2023-04-13T09:28:49.598Z,14.67
2023-04-13T09:31:19.244Z,14.63
2023-04-13T09:33:49.083Z,14.54
2023-04-13T09:36:21.366Z,14.45
2023-04-13T09:38:56.002Z,14.37
2023-04-13T09:41:40.356Z,14.32
2023-04-13T09:44:20.379Z,14.31
2023-04-13T09:47:04.125Z,14.33
2023-04-13T09:49:39.427Z,14.36
2023-04-13T09:52:08.197Z,14.42
2023-04-13T09:54:36.555Z,14.47
2023-04-13T09:57:04.717Z,14.55
2023-04-13T09:59:32.989Z,14.59
2023-04-13T10:02:02.070Z,14.56
2023-04-13T10:04:31.751Z,14.59
2023-04-13T10:06:59.261Z,14.58
2023-04-13T10:09:29.019Z,14.61
2023-04-13T10:12:00.075Z,14.70
2023-04-13T10:14:32.583Z,14.80
2023-04-13T10:17:07.491Z,14.87
2023-04-13T10:19:41.164Z,14.99
2023-04-13T10:22:09.689Z,15.03
2023-04-13T10:24:38.796Z,15.03
2023-04-13T10:27:22.529Z,15.01
2023-04-13T10:29:50.355Z,15.08
2023-04-13T10:32:25.681Z,15.16
2023-04-13T10:34:54.074Z,15.20
2023-04-13T10:37:23.420Z,15.23
2023-04-13T10:40:10.372Z,15.31
2023-04-13T10:42:51.821Z,15.46
2023-04-13T10:45:26.061Z,15.60
2023-04-13T10:47:54.379Z,15.69
2023-04-13T10:50:23.065Z,15.75
2023-04-13T10:52:58.235Z,15.85
2023-04-13T10:55:27.276Z,15.97
2023-04-13T10:57:56.343Z,16.09
2023-04-13T11:00:34.711Z,16.18
2023-04-13T11:03:10.077Z,16.34
2023-04-13T11:05:38.357Z,16.49
2023-04-13T11:08:06.069Z,16.57
2023-04-13T11:10:33.745Z,16.63
2023-04-13T11:13:01.984Z,16.67
2023-04-13T11:15:30.393Z,16.67
2023-04-13T11:17:59.053Z,16.69
2023-04-13T11:20:33.967Z,16.73
2023-04-13T11:23:04.239Z,16.83
2023-04-13T11:25:33.572Z,16.96
2023-04-13T11:28:02.159Z,17.07
2023-04-13T11:30:30.628Z,17.15
2023-04-13T11:32:59.961Z,17.21
2023-04-13T11:35:27.570Z,17.26
2023-04-13T11:37:55.909Z,17.31
2023-04-13T11:40:25.402Z,17.34
2023-04-13T11:42:54.596Z,17.46
2023-04-13T11:45:25.710Z,17.64
2023-04-13T11:47:54.122Z,17.73
2023-04-13T11:50:22.386Z,17.70
2023-04-13T11:52:52.303Z,17.66
2023-04-13T11:55:23.850Z,17.70
2023-04-13T11:57:53.737Z,17.79
2023-04-13T12:00:24.719Z,17.83
2023-04-13T12:05:29.854Z,18.05
2023-04-13T12:07:59.296Z,18.10
2023-04-13T12:10:38.962Z,18.18
2023-04-13T12:16:05.540Z,18.29
2023-04-13T12:18:44.242Z,18.29
2023-04-13T12:21:17.814Z,18.29
2023-04-13T12:24:02.428Z,18.36
2023-04-13T12:29:03.622Z,18.62
2023-04-13T12:31:35.861Z,18.79
2023-04-13T12:34:04.059Z,18.90
2023-04-13T12:36:35.367Z,18.97
2023-04-13T12:39:04.324Z,19.11
2023-04-13T12:41:33.134Z,19.18
2023-04-13T12:44:01.276Z,19.41
2023-04-13T12:46:29.204Z,19.90
2023-04-13T12:48:57.069Z,20.47
2023-04-13T12:51:24.928Z,20.94
2023-04-13T12:53:52.588Z,21.54
2023-04-13T12:56:20.621Z,22.13
2023-04-13T12:58:49.427Z,22.71
2023-04-13T13:01:17.184Z,23.20
2023-04-13T13:03:46.056Z,23.56
2023-04-13T13:06:13.948Z,24.10
2023-04-13T13:08:41.622Z,24.65
2023-04-13T13:11:09.315Z,25.15
2023-04-13T13:13:37.557Z,25.83
2023-04-13T13:16:05.534Z,26.95
2023-04-13T13:18:47.048Z,27.92
2023-04-13T13:21:18.527Z,28.81
2023-04-13T13:23:46.510Z,29.30
2023-04-13T13:28:46.056Z,29.73
2023-04-13T13:31:15.366Z,30.05
2023-04-13T13:33:43.602Z,30.08
2023-04-13T13:36:13.645Z,30.16
2023-04-13T13:38:42.685Z,29.94
2023-04-13T13:41:10.926Z,28.93
2023-04-13T13:43:39.111Z,28.21
2023-04-13T13:46:06.981Z,27.79
2023-04-13T13:48:35.389Z,27.35
2023-04-13T13:51:28.181Z,27.45
2023-04-13T13:53:56.311Z,27.94
2023-04-13T13:56:24.204Z,28.49
2023-04-13T13:58:51.914Z,28.93
2023-04-13T14:01:22.782Z,29.91
2023-04-13T14:03:51.161Z,30.90
2023-04-13T14:06:20.254Z,31.93
2023-04-13T14:08:48.124Z,32.60
2023-04-13T14:11:15.958Z,33.09
2023-04-13T14:13:43.636Z,33.18
2023-04-13T14:16:11.686Z,33.09
2023-04-13T14:18:39.435Z,32.61
2023-04-13T14:21:07.613Z,32.14
2023-04-13T14:23:37.528Z,31.61
2023-04-13T14:26:05.597Z,31.50
2023-04-13T14:28:33.565Z,31.88
2023-04-13T14:31:01.242Z,32.50
2023-04-13T14:33:28.962Z,33.29
2023-04-13T14:35:56.761Z,34.07
2023-04-13T14:38:24.849Z,34.60
2023-04-13T14:40:52.544Z,34.78
2023-04-13T14:43:20.761Z,35.15
2023-04-13T14:45:51.924Z,34.80
2023-04-13T14:48:19.833Z,34.11
2023-04-13T14:50:48.088Z,33.99
2023-04-13T14:53:16.341Z,34.07
2023-04-13T14:55:45.976Z,34.00
2023-04-13T14:58:13.772Z,34.10
2023-04-13T15:00:41.936Z,34.37
2023-04-13T15:03:10.849Z,34.52
2023-04-13T15:05:45.440Z,34.53
2023-04-13T15:08:15.773Z,34.61
2023-04-13T15:10:43.692Z,34.34
2023-04-13T15:13:11.686Z,34.10
2023-04-13T15:15:40.513Z,34.11
2023-04-13T15:18:08.900Z,34.22
2023-04-13T15:20:36.701Z,34.02
2023-04-13T15:23:04.533Z,33.80
2023-04-13T15:25:32.542Z,33.76
2023-04-13T15:28:00.338Z,33.61
2023-04-13T15:30:29.178Z,32.98
2023-04-13T15:32:58.230Z,32.16
2023-04-13T15:35:27.209Z,31.69
2023-04-13T15:37:55.852Z,31.57
2023-04-13T15:40:27.399Z,31.58
2023-04-13T15:42:55.412Z,31.60
2023-04-13T15:45:23.146Z,31.33
2023-04-13T15:47:51.632Z,30.93
2023-04-13T15:50:19.710Z,30.55
2023-04-13T15:52:47.451Z,30.37
2023-04-13T15:55:15.263Z,30.02
2023-04-13T15:57:43.036Z,29.35
2023-04-13T16:00:12.445Z,28.38
2023-04-13T16:02:40.553Z,27.32
2023-04-13T16:05:08.943Z,26.48
2023-04-13T16:07:36.704Z,25.72
2023-04-13T16:10:05.034Z,25.08
2023-04-13T16:12:32.788Z,24.48
2023-04-13T16:15:01.460Z,23.93
2023-04-13T16:17:33.075Z,23.37
2023-04-13T16:20:18.468Z,23.04
2023-04-13T16:22:48.745Z,22.64
2023-04-13T16:25:17.656Z,22.25
2023-04-13T16:27:47.852Z,21.94
2023-04-13T16:30:17.522Z,21.67
2023-04-13T16:32:46.276Z,21.34
2023-04-13T16:35:14.197Z,21.04
2023-04-13T16:37:42.477Z,20.74
2023-04-13T16:40:11.060Z,20.43
2023-04-13T16:42:40.297Z,20.09
2023-04-13T16:45:11.401Z,19.83
2023-04-13T16:47:40.177Z,19.54
2023-04-13T16:50:09.633Z,19.24
2023-04-13T16:52:40.992Z,18.95
2023-04-13T16:55:13.719Z,18.67
2023-04-13T16:57:42.953Z,18.40
2023-04-13T17:00:11.565Z,18.20
2023-04-13T17:02:40.842Z,17.98
2023-04-13T17:05:10.794Z,17.72
2023-04-13T17:07:39.294Z,17.44
2023-04-13T17:10:07.939Z,17.08
2023-04-13T17:12:36.368Z,16.80
2023-04-13T17:15:07.068Z,16.60
2023-04-13T17:17:35.178Z,16.43
2023-04-13T17:20:03.293Z,16.31
2023-04-13T17:22:31.683Z,16.17
2023-04-13T17:24:59.453Z,16.03
2023-04-13T17:27:27.187Z,15.84
2023-04-13T17:29:55.296Z,15.69
2023-04-13T17:32:23.452Z,15.56
2023-04-13T17:34:51.286Z,15.44
2023-04-13T17:37:19.294Z,15.33
2023-04-13T17:39:47.769Z,15.21
2023-04-13T17:42:16.066Z,15.08
2023-04-13T17:44:43.909Z,14.90
2023-04-13T17:47:11.637Z,14.70
2023-04-13T17:49:40.262Z,14.47
2023-04-13T17:52:08.006Z,14.26
2023-04-13T17:54:36.286Z,14.08
2023-04-13T17:57:06.953Z,13.92
2023-04-13T17:59:35.315Z,13.77
2023-04-13T18:02:03.361Z,13.67
2023-04-13T18:04:31.399Z,13.59
2023-04-13T18:06:59.292Z,13.49
2023-04-13T18:09:28.017Z,13.39
2023-04-13T18:11:55.815Z,13.29
2023-04-13T18:14:23.770Z,13.22
2023-04-13T18:16:51.607Z,13.16
2023-04-13T18:19:19.564Z,13.11
2023-04-13T18:21:47.622Z,13.04
2023-04-13T18:24:15.767Z,12.92
2023-04-13T18:26:43.601Z,12.79
2023-04-13T18:29:11.342Z,12.66
2023-04-13T18:31:39.146Z,12.54
2023-04-13T18:34:10.293Z,12.43
2023-04-13T18:36:38.083Z,12.38
2023-04-13T18:39:07.032Z,12.36
2023-04-13T18:41:35.253Z,12.34
2023-04-13T18:44:03.629Z,12.33
2023-04-13T18:46:31.863Z,12.32
2023-04-13T18:48:59.634Z,12.31
2023-04-13T18:51:28.026Z,12.27
2023-04-13T18:53:56.006Z,12.18
2023-04-13T18:56:23.767Z,12.12
2023-04-13T18:58:52.057Z,12.08
2023-04-13T19:01:20.124Z,12.06
2023-04-13T19:03:51.807Z,12.03
2023-04-13T19:06:20.346Z,12.00
2023-04-13T19:08:48.059Z,11.97
2023-04-13T19:11:17.606Z,11.93
2023-04-13T19:13:47.968Z,11.90
2023-04-13T19:16:15.742Z,11.87
2023-04-13T19:18:43.895Z,11.82
2023-04-13T19:21:11.611Z,11.78
2023-04-13T19:23:40.535Z,11.73
2023-04-13T19:26:08.872Z,11.66
2023-04-13T19:28:37.086Z,11.57
2023-04-13T19:31:04.827Z,11.46
2023-04-13T19:33:34.779Z,11.41
2023-04-13T19:36:05.706Z,11.36
2023-04-13T19:38:33.409Z,11.35
2023-04-13T19:41:02.310Z,11.33
2023-04-13T19:43:30.227Z,11.21
2023-04-13T19:45:58.519Z,11.17
2023-04-13T19:48:27.729Z,11.17
2023-04-13T19:50:55.902Z,11.16
2023-04-13T19:53:23.755Z,11.18
2023-04-13T19:55:52.150Z,11.22
2023-04-13T19:58:19.828Z,11.23
2023-04-13T20:00:47.886Z,11.26
2023-04-13T20:03:17.898Z,11.30
2023-04-13T20:05:47.186Z,11.31
2023-04-13T20:08:16.308Z,11.30
2023-04-13T20:10:44.172Z,11.26
2023-04-13T20:13:11.854Z,11.20
2023-04-13T20:15:39.622Z,11.15
2023-04-13T20:18:08.460Z,11.08
2023-04-13T20:20:37.295Z,11.03
2023-04-13T20:23:05.253Z,11.00
2023-04-13T20:25:32.965Z,10.99
2023-04-13T20:28:00.725Z,11.00
2023-04-13T20:30:28.400Z,11.01
2023-04-13T20:32:56.088Z,11.02
2023-04-13T20:35:24.290Z,11.03
2023-04-13T20:37:51.994Z,11.04
2023-04-13T20:40:27.182Z,11.04
2023-04-13T20:42:56.396Z,11.04
2023-04-13T20:45:24.537Z,11.04
2023-04-13T20:47:56.259Z,11.04
2023-04-13T20:50:27.420Z,11.04
2023-04-13T20:52:56.701Z,11.02
2023-04-13T20:55:24.582Z,11.02
2023-04-13T20:57:52.396Z,11.00
2023-04-13T21:00:23.337Z,11.00
2023-04-13T21:02:53.242Z,10.96
2023-04-13T21:05:22.090Z,10.93
2023-04-13T21:07:50.226Z,10.91
2023-04-13T21:10:17.942Z,10.88
2023-04-13T21:12:46.044Z,10.84
2023-04-13T21:15:13.714Z,10.79
2023-04-13T21:17:41.561Z,10.73
2023-04-13T21:20:09.959Z,10.70
2023-04-13T21:22:37.884Z,10.66
2023-04-13T21:25:06.214Z,10.62
2023-04-13T21:27:33.866Z,10.59
2023-04-13T21:30:01.548Z,10.55
2023-04-13T21:32:29.319Z,10.50
2023-04-13T21:34:57.502Z,10.48
2023-04-13T21:37:25.199Z,10.44
2023-04-13T21:39:54.527Z,10.40
2023-04-13T21:42:22.804Z,10.35
2023-04-13T21:44:51.088Z,10.30
2023-04-13T21:47:18.818Z,10.25
2023-04-13T21:49:46.456Z,10.20
2023-04-13T21:52:14.148Z,10.15
2023-04-13T21:54:41.857Z,10.10
2023-04-13T21:57:10.227Z,10.04
2023-04-13T21:59:37.921Z,9.99
2023-04-13T22:02:05.782Z,9.92
2023-04-13T22:04:34.269Z,9.84
2023-04-13T22:07:02.182Z,9.77
2023-04-13T22:09:30.933Z,9.73
2023-04-13T22:11:58.681Z,9.67
2023-04-13T22:14:26.461Z,9.63
2023-04-13T22:16:54.349Z,9.59
2023-04-13T22:19:22.093Z,9.55
2023-04-13T22:21:49.859Z,9.51
2023-04-13T22:24:17.608Z,9.47
2023-04-13T22:26:46.200Z,9.43
2023-04-13T22:29:13.957Z,9.39
2023-04-13T22:31:41.798Z,9.33
2023-04-13T22:34:09.625Z,9.25
2023-04-13T22:36:37.447Z,9.19
2023-04-13T22:39:05.229Z,9.12
2023-04-13T22:41:33.016Z,9.06
2023-04-13T22:44:00.765Z,9.01
2023-04-13T22:46:28.564Z,8.96
2023-04-13T22:48:56.502Z,8.92
2023-04-13T22:51:24.282Z,8.87
2023-04-13T22:53:52.058Z,8.82
2023-04-13T22:56:19.792Z,8.75
2023-04-13T22:58:47.738Z,8.69
2023-04-13T23:01:15.836Z,8.62
2023-04-13T23:03:43.784Z,8.57
2023-04-13T23:06:11.788Z,8.53
2023-04-13T23:08:39.553Z,8.50
2023-04-13T23:11:10.587Z,8.48
2023-04-13T23:13:38.400Z,8.47
2023-04-13T23:16:06.837Z,8.45
2023-04-13T23:18:34.860Z,8.43
2023-04-13T23:21:18.694Z,8.40
2023-04-13T23:23:46.480Z,8.38
2023-04-13T23:26:14.596Z,8.36
2023-04-13T23:28:42.341Z,8.35
2023-04-13T23:31:10.882Z,8.32
2023-04-13T23:33:38.831Z,8.30
2023-04-13T23:36:07.117Z,8.28
2023-04-13T23:38:34.869Z,8.27
2023-04-13T23:41:02.766Z,8.24
2023-04-13T23:43:30.480Z,8.21
2023-04-13T23:45:59.083Z,8.18
2023-04-13T23:48:27.134Z,8.14
2023-04-13T23:50:55.544Z,8.10
2023-04-13T23:53:23.696Z,8.06
2023-04-13T23:55:51.426Z,8.04
2023-04-13T23:58:19.233Z,8.02
